Time;durP1;ratioP1;P1;durP2;ratioP2;P2;SDS_P1;SDS_P2;PMS_P1;PMS_P2;Temp;Humidity;BMP_temperature;BMP_pressure;BME280_temperature;BME280_humidity;BME280_pressure;Samples;Min_cycle;Max_cycle;Signal;HPM_P1;HPM_P2
2021/10/10 00:04:53;;;;;;;86.07;43.80;;;;;;;;;;4248353;33;20169;-76
2021/10/10 00:07:41;;;;;;;;;;;;;;;;;;;;;
2021/10/10 00:10:06;;;;;;;71.28;38.60;;;;;;;;;;4255929;33;20149;-77
2021/10/10 00:12:32;;;;;;;73.97;40.97;;;;;;;;;;4248828;33;20196;-76
2021/10/10 00:15:03;;;;;;;70.12;39.83;;;;;;;;;;4309411;33;20211;-76
2021/10/10 00:17:29;;;;;;;78.05;42.85;;;;;;;;;;4310935;33;20214;-76
2021/10/10 00:19:54;;;;;;;91.45;47.72;;;;;;;;;;4290601;33;20524;-76
2021/10/10 00:22:39;;;;;;;81.85;45.22;;;;;;;;;;4290591;33;20175;-76
2021/10/10 00:25:27;;;;;;;78.37;43.95;;;;;;;;;;4304359;33;20144;-76
2021/10/10 00:27:59;;;;;;;79.12;44.38;;;;;;;;;;4281562;33;20191;-76
2021/10/10 00:30:25;;;;;;;81.05;43.10;;;;;;;;;;4291025;33;20172;-76
2021/10/10 00:32:56;;;;;;;74.15;42.88;;;;;;;;;;4303763;33;20144;-76
2021/10/10 00:35:53;;;;;;;;;;;;;;;;;;;;;
2021/10/10 00:38:22;;;;;;;88.35;45.55;;;;;;;;;;4301705;33;20156;-76
2021/10/10 00:40:47;;;;;;;74.62;40.30;;;;;;;;;;4287014;33;20209;-78
2021/10/10 00:43:20;;;;;;;82.47;42.00;;;;;;;;;;4298272;33;20205;-76
2021/10/10 00:45:46;;;;;;;76.57;40.20;;;;;;;;;;4302743;33;20168;-76
2021/10/10 00:48:12;;;;;;;73.07;40.58;;;;;;;;;;4302745;33;20148;-76
2021/10/10 00:50:37;;;;;;;64.05;37.72;;;;;;;;;;4303482;33;20558;-76
2021/10/10 00:53:03;;;;;;;85.25;44.85;;;;;;;;;;4301192;33;20487;-76
2021/10/10 00:55:28;;;;;;;73.68;41.20;;;;;;;;;;4302772;33;20608;-76
2021/10/10 00:57:54;;;;;;;100.18;48.10;;;;;;;;;;4289490;33;20468;-76
2021/10/10 01:00:20;;;;;;;78.50;42.85;;;;;;;;;;4302429;33;20143;-76
2021/10/10 01:03:02;;;;;;;72.30;42.40;;;;;;;;;;4302808;33;20140;-76
2021/10/10 01:05:28;;;;;;;84.10;46.90;;;;;;;;;;4302996;33;20243;-76
2021/10/10 01:08:01;;;;;;;72.80;41.10;;;;;;;;;;4302783;33;20467;-76
2021/10/10 01:10:29;;;;;;;78.93;41.95;;;;;;;;;;4289914;33;20829;-76
2021/10/10 01:12:55;;;;;;;78.72;43.20;;;;;;;;;;4302544;33;20637;-76
2021/10/10 01:15:21;;;;;;;73.12;41.13;;;;;;;;;;4302560;33;20148;-76
2021/10/10 01:17:55;;;;;;;74.90;42.42;;;;;;;;;;4302828;33;20167;-76
2021/10/10 01:20:34;;;;;;;68.40;39.00;;;;;;;;;;4303210;33;20596;-76
2021/10/10 01:23:11;;;;;;;79.87;43.05;;;;;;;;;;4303280;33;20549;-76
2021/10/10 01:26:00;;;;;;;74.35;40.17;;;;;;;;;;4289506;33;20171;-76
2021/10/10 01:28:32;;;;;;;94.37;46.85;;;;;;;;;;4282684;33;20153;-76
2021/10/10 01:30:57;;;;;;;84.85;45.70;;;;;;;;;;4286280;33;20215;-77
2021/10/10 01:43:15;;;;;;;94.87;45.70;;;;;;;;;;4257717;33;20238;-78
2021/10/10 01:49:16;;;;;;;69.43;39.55;;;;;;;;;;4229497;33;20661;-77
2021/10/10 01:55:11;;;;;;;71.68;38.53;;;;;;;;;;4215855;34;20195;-77
2021/10/10 02:01:03;;;;;;;;;;;;;;;;;;;;;
2021/10/10 02:03:41;;;;;;;;;;;;;;;;;;;;;
2021/10/10 02:06:12;;;;;;;72.82;40.33;;;;;;;;;;4288280;33;20495;-77
2021/10/10 02:08:40;;;;;;;73.68;40.75;;;;;;;;;;4274816;33;20192;-77
2021/10/10 02:11:24;;;;;;;;;;;;;;;;;;;;;
2021/10/10 02:14:04;;;;;;;69.90;38.88;;;;;;;;;;4256527;33;20655;-77
2021/10/10 02:16:29;;;;;;;62.58;37.05;;;;;;;;;;4295047;33;20223;-77
2021/10/10 02:28:06;;;;;;;88.53;48.92;;;;;;;;;;4302056;33;20382;-76
2021/10/10 02:34:14;;;;;;;83.03;43.33;;;;;;;;;;4288663;33;20215;-77
2021/10/10 02:37:34;;;;;;;77.30;41.97;;;;;;;;;;4302692;33;20179;-77
2021/10/10 02:39:44;;;;;;;74.43;40.20;;;;;;;;;;4301796;33;20260;-77
2021/10/10 02:42:31;;;;;;;106.53;50.50;;;;;;;;;;4302230;33;20206;-77
2021/10/10 02:44:59;;;;;;;97.53;48.90;;;;;;;;;;4302126;33;20167;-77
2021/10/10 02:47:34;;;;;;;85.28;46.10;;;;;;;;;;4300888;33;20669;-76
2021/10/10 02:49:59;;;;;;;72.25;40.72;;;;;;;;;;4299982;33;20590;-76
2021/10/10 02:52:46;;;;;;;69.78;38.40;;;;;;;;;;4299251;33;20136;-77
2021/10/10 02:55:11;;;;;;;65.85;36.90;;;;;;;;;;4284373;33;20224;-76
2021/10/10 02:58:22;;;;;;;85.32;43.97;;;;;;;;;;4297119;33;20531;-76
2021/10/10 03:00:52;;;;;;;67.32;38.17;;;;;;;;;;4286685;33;20648;-77
2021/10/10 03:03:19;;;;;;;71.05;40.28;;;;;;;;;;4298255;33;20587;-76
2021/10/10 03:05:57;;;;;;;83.20;41.67;;;;;;;;;;4288031;33;20172;-76
2021/10/10 03:08:30;;;;;;;70.97;40.20;;;;;;;;;;4297735;33;20188;-76
2021/10/10 03:14:43;;;;;;;68.68;38.50;;;;;;;;;;4295124;33;20218;-76
2021/10/10 03:16:52;;;;;;;91.10;44.40;;;;;;;;;;4295554;33;20183;-76
2021/10/10 03:19:28;;;;;;;74.53;40.72;;;;;;;;;;4284000;33;20630;-76
2021/10/10 03:22:02;;;;;;;73.35;40.05;;;;;;;;;;4287146;33;20542;-76
2021/10/10 03:24:43;;;;;;;78.93;42.53;;;;;;;;;;4299469;33;20604;-76
2021/10/10 03:33:08;;;;;;;238.00;67.00;;;;;;;;;;4297999;33;20279;-76
2021/10/10 03:35:45;;;;;;;220.27;61.08;;;;;;;;;;4298218;33;20502;-76
2021/10/10 03:38:19;;;;;;;147.00;52.20;;;;;;;;;;4301612;33;20152;-76
2021/10/10 03:41:04;;;;;;;75.65;42.25;;;;;;;;;;4302054;33;20121;-76
2021/10/10 03:43:50;;;;;;;63.40;37.92;;;;;;;;;;4287978;33;20156;-75
2021/10/10 03:49:01;;;;;;;63.55;38.20;;;;;;;;;;4303229;33;20180;-76
2021/10/10 03:51:33;;;;;;;89.18;44.47;;;;;;;;;;4304832;33;20163;-76
2021/10/10 04:00:01;;;;;;;55.42;35.72;;;;;;;;;;4281506;33;20157;-76
2021/10/10 04:02:35;;;;;;;84.15;45.90;;;;;;;;;;4303994;33;20445;-76
2021/10/10 04:05:03;;;;;;;58.38;35.10;;;;;;;;;;4304238;33;20214;-76
2021/10/10 04:07:31;;;;;;;65.40;37.75;;;;;;;;;;4290840;33;20224;-76
2021/10/10 04:10:15;;;;;;;;;;;;;;;;;;;;;
2021/10/10 04:12:41;;;;;;;56.92;35.58;;;;;;;;;;4289800;33;20588;-76
2021/10/10 04:15:13;;;;;;;78.12;43.08;;;;;;;;;;4288361;33;20229;-77
2021/10/10 04:17:43;;;;;;;70.25;40.28;;;;;;;;;;4289960;33;20150;-76
2021/10/10 04:20:29;;;;;;;76.05;41.25;;;;;;;;;;4288571;33;20169;-77
2021/10/10 04:22:54;;;;;;;74.15;39.78;;;;;;;;;;4288111;33;20239;-77
2021/10/10 04:25:27;;;;;;;87.25;42.83;;;;;;;;;;4288122;33;20160;-77
2021/10/10 04:28:01;;;;;;;71.97;39.65;;;;;;;;;;4291776;33;20140;-76
2021/10/10 04:30:27;;;;;;;76.72;41.13;;;;;;;;;;4303628;33;20455;-76
2021/10/10 04:32:52;;;;;;;72.70;40.38;;;;;;;;;;4303636;33;20159;-76
2021/10/10 04:35:18;;;;;;;78.05;39.80;;;;;;;;;;4290529;33;20194;-77
2021/10/10 04:37:45;;;;;;;91.78;42.90;;;;;;;;;;4290362;33;20211;-77
2021/10/10 04:40:11;;;;;;;77.93;39.13;;;;;;;;;;4290625;33;20160;-76
2021/10/10 04:42:36;;;;;;;73.30;37.72;;;;;;;;;;4290200;33;20179;-76
2021/10/10 04:45:01;;;;;;;67.55;36.88;;;;;;;;;;4290202;33;20223;-76
2021/10/10 04:47:27;;;;;;;65.82;36.20;;;;;;;;;;4290458;33;20192;-77
2021/10/10 04:50:02;;;;;;;72.18;38.45;;;;;;;;;;4290244;33;20554;-76
2021/10/10 04:52:27;;;;;;;100.75;45.03;;;;;;;;;;4290579;33;20497;-76
2021/10/10 04:55:30;;;;;;;62.30;34.75;;;;;;;;;;4290091;33;20248;-76
2021/10/10 04:58:26;;;;;;;90.72;42.25;;;;;;;;;;4300192;33;20552;-77
2021/10/10 05:00:52;;;;;;;83.95;39.55;;;;;;;;;;4289164;33;20531;-76
2021/10/10 05:03:20;;;;;;;69.85;37.83;;;;;;;;;;4289740;33;20222;-76
2021/10/10 05:06:08;;;;;;;81.30;41.97;;;;;;;;;;4296401;33;20203;-77
2021/10/10 05:08:51;;;;;;;72.95;36.80;;;;;;;;;;4287052;33;20152;-77
2021/10/10 05:11:35;;;;;;;;;;;;;;;;;;;;;
2021/10/10 05:14:04;;;;;;;43.20;28.83;;;;;;;;;;4299750;33;20149;-77
2021/10/10 05:16:29;;;;;;;46.20;30.92;;;;;;;;;;4301924;33;20195;-76
2021/10/10 05:18:57;;;;;;;41.28;28.50;;;;;;;;;;4301726;33;20176;-76
2021/10/10 05:21:25;;;;;;;61.72;31.75;;;;;;;;;;4301478;33;20227;-77
2021/10/10 05:23:51;;;;;;;58.30;32.83;;;;;;;;;;4302289;33;20164;-76
2021/10/10 05:26:16;;;;;;;61.65;36.30;;;;;;;;;;4301696;33;20186;-75
2021/10/10 05:28:41;;;;;;;38.53;28.48;;;;;;;;;;4301664;33;20164;-77
2021/10/10 05:31:07;;;;;;;50.08;31.98;;;;;;;;;;4303362;33;20202;-76
2021/10/10 05:33:49;;;;;;;75.45;40.40;;;;;;;;;;4301376;33;20161;-77
2021/10/10 05:36:17;;;;;;;83.90;41.55;;;;;;;;;;4301373;33;20231;-76
2021/10/10 05:38:50;;;;;;;132.57;44.63;;;;;;;;;;4301709;33;20160;-76
2021/10/10 05:44:22;;;;;;;44.55;30.35;;;;;;;;;;4298393;33;20188;-76
2021/10/10 05:46:54;;;;;;;59.35;33.97;;;;;;;;;;4302699;33;20255;-77
2021/10/10 05:52:42;;;;;;;;;;;;;;;;;;;;;
2021/10/10 05:55:28;;;;;;;104.63;42.90;;;;;;;;;;4293654;33;20542;-76
2021/10/10 05:58:01;;;;;;;67.82;35.70;;;;;;;;;;4291299;33;20160;-78
2021/10/10 06:00:27;;;;;;;48.72;32.00;;;;;;;;;;4286004;33;20586;-77
2021/10/10 06:02:52;;;;;;;40.67;29.25;;;;;;;;;;4301059;33;20153;-78
2021/10/10 06:05:18;;;;;;;55.83;34.47;;;;;;;;;;4288918;33;20204;-77
2021/10/10 06:07:43;;;;;;;67.22;38.17;;;;;;;;;;4301133;33;20164;-78
2021/10/10 06:10:08;;;;;;;69.47;39.22;;;;;;;;;;4297432;33;20590;-76
2021/10/10 06:12:36;;;;;;;71.03;39.80;;;;;;;;;;4302116;33;20171;-76
2021/10/10 06:15:03;;;;;;;61.90;36.88;;;;;;;;;;4300479;33;20191;-76
2021/10/10 06:17:29;;;;;;;44.85;30.00;;;;;;;;;;4301006;33;20162;-77
2021/10/10 06:19:59;;;;;;;60.03;36.92;;;;;;;;;;4302428;33;20133;-76
2021/10/10 06:22:25;;;;;;;54.90;35.83;;;;;;;;;;4289179;33;20187;-76
2021/10/10 06:24:50;;;;;;;63.75;39.05;;;;;;;;;;4288827;33;20191;-76
2021/10/10 06:27:28;;;;;;;53.58;34.30;;;;;;;;;;4288828;33;20160;-77
2021/10/10 06:29:53;;;;;;;45.75;30.50;;;;;;;;;;4287722;33;20160;-77
2021/10/10 06:32:30;;;;;;;40.00;28.42;;;;;;;;;;4290450;33;20216;-77
2021/10/10 06:35:11;;;;;;;45.63;31.62;;;;;;;;;;4289028;33;20293;-76
2021/10/10 06:37:36;;;;;;;48.40;32.08;;;;;;;;;;4287645;33;20163;-76
2021/10/10 06:40:04;;;;;;;51.37;33.60;;;;;;;;;;4283847;33;20239;-76
2021/10/10 06:42:31;;;;;;;51.37;33.78;;;;;;;;;;4296586;33;20157;-76
2021/10/10 06:44:56;;;;;;;50.28;34.25;;;;;;;;;;4300921;33;20190;-76
2021/10/10 06:47:21;;;;;;;51.28;34.28;;;;;;;;;;4296065;33;20527;-76
2021/10/10 06:49:50;;;;;;;56.10;36.70;;;;;;;;;;4300348;33;20192;-76
2021/10/10 06:52:18;;;;;;;47.50;32.65;;;;;;;;;;4300485;33;20172;-76
2021/10/10 06:54:44;;;;;;;54.13;35.50;;;;;;;;;;4301767;33;20171;-76
2021/10/10 06:57:09;;;;;;;49.45;32.75;;;;;;;;;;4300447;33;20482;-76
2021/10/10 06:59:35;;;;;;;50.60;34.13;;;;;;;;;;4300378;33;20555;-76
2021/10/10 07:02:03;;;;;;;55.55;34.92;;;;;;;;;;4297490;33;20164;-75
2021/10/10 07:04:28;;;;;;;43.00;31.00;;;;;;;;;;4288438;33;20525;-76
2021/10/10 07:06:55;;;;;;;48.75;32.97;;;;;;;;;;4288889;33;20183;-77
2021/10/10 07:09:20;;;;;;;50.10;33.90;;;;;;;;;;4288266;33;20186;-77
2021/10/10 07:11:45;;;;;;;48.53;32.47;;;;;;;;;;4288392;33;20173;-77
2021/10/10 07:14:11;;;;;;;50.00;33.57;;;;;;;;;;4288603;33;20510;-76
2021/10/10 07:16:42;;;;;;;66.50;40.97;;;;;;;;;;4288384;33;20168;-76
2021/10/10 07:19:07;;;;;;;56.37;36.63;;;;;;;;;;4301849;33;20219;-76
2021/10/10 07:21:44;;;;;;;55.00;35.03;;;;;;;;;;4288228;33;20184;-76
2021/10/10 07:26:37;;;;;;;58.33;37.50;;;;;;;;;;4301337;33;20463;-76
2021/10/10 07:29:05;;;;;;;55.20;35.90;;;;;;;;;;4286161;33;20160;-77
2021/10/10 07:31:30;;;;;;;51.40;32.70;;;;;;;;;;4286627;33;20153;-77
2021/10/10 07:33:56;;;;;;;49.53;33.78;;;;;;;;;;4286981;33;20156;-76
2021/10/10 07:36:27;;;;;;;52.83;34.17;;;;;;;;;;4285931;33;20168;-76
2021/10/10 07:38:52;;;;;;;53.60;35.38;;;;;;;;;;4285897;33;20187;-76
2021/10/10 07:41:25;;;;;;;47.67;33.22;;;;;;;;;;4292349;33;20184;-76
2021/10/10 07:43:50;;;;;;;47.38;31.87;;;;;;;;;;4287991;33;20160;-76
2021/10/10 07:46:32;;;;;;;57.05;33.90;;;;;;;;;;4303175;33;20173;-76
2021/10/10 07:48:57;;;;;;;51.40;32.88;;;;;;;;;;4287771;33;20192;-73
2021/10/10 07:51:25;;;;;;;68.35;40.30;;;;;;;;;;4298800;33;20215;-77
2021/10/10 07:53:57;;;;;;;72.50;40.38;;;;;;;;;;4287492;33;20184;-76
2021/10/10 07:56:22;;;;;;;58.53;38.25;;;;;;;;;;4285336;33;20161;-76
2021/10/10 07:58:50;;;;;;;57.85;35.85;;;;;;;;;;4285830;33;20230;-76
2021/10/10 08:01:16;;;;;;;55.58;35.45;;;;;;;;;;4285635;33;20195;-77
2021/10/10 08:03:50;;;;;;;57.45;37.70;;;;;;;;;;4287078;33;20173;-75
2021/10/10 08:06:15;;;;;;;57.70;36.10;;;;;;;;;;4285743;33;20200;-75
2021/10/10 08:08:40;;;;;;;68.72;41.13;;;;;;;;;;4286210;33;20500;-75
2021/10/10 08:11:09;;;;;;;71.78;41.67;;;;;;;;;;4285564;33;20504;-75
2021/10/10 08:13:37;;;;;;;68.47;41.37;;;;;;;;;;4288079;33;20223;-75
2021/10/10 08:16:02;;;;;;;70.55;40.63;;;;;;;;;;4288223;33;20157;-74
2021/10/10 08:18:31;;;;;;;61.78;37.85;;;;;;;;;;4288945;33;20218;-75
2021/10/10 08:20:56;;;;;;;63.20;37.65;;;;;;;;;;4288339;33;20597;-76
2021/10/10 08:23:24;;;;;;;64.10;38.35;;;;;;;;;;4287932;33;20157;-77
2021/10/10 08:25:50;;;;;;;51.45;33.40;;;;;;;;;;4288038;33;20165;-76
2021/10/10 08:28:15;;;;;;;46.95;31.33;;;;;;;;;;4288269;33;20226;-75
2021/10/10 08:30:40;;;;;;;48.10;33.25;;;;;;;;;;4296843;33;20223;-76
2021/10/10 08:33:05;;;;;;;47.92;31.98;;;;;;;;;;4289859;33;20542;-76
2021/10/10 08:35:31;;;;;;;48.83;31.10;;;;;;;;;;4291537;33;20496;-75
2021/10/10 08:37:56;;;;;;;52.60;32.65;;;;;;;;;;4290619;33;20169;-76
2021/10/10 08:40:22;;;;;;;50.12;32.38;;;;;;;;;;4290930;33;20252;-75
2021/10/10 08:42:54;;;;;;;58.45;32.38;;;;;;;;;;4290388;33;20203;-75
2021/10/10 08:45:23;;;;;;;54.40;32.92;;;;;;;;;;4292055;33;20217;-76
2021/10/10 08:47:55;;;;;;;63.83;35.80;;;;;;;;;;4304800;33;20235;-76
2021/10/10 08:50:22;;;;;;;66.68;37.47;;;;;;;;;;4308109;33;20170;-76
2021/10/10 08:52:52;;;;;;;66.57;38.20;;;;;;;;;;4299126;33;20160;-76
2021/10/10 08:55:17;;;;;;;73.43;41.78;;;;;;;;;;4296349;33;20207;-75
2021/10/10 08:57:43;;;;;;;69.20;39.08;;;;;;;;;;4296602;33;20161;-75
2021/10/10 09:02:53;;;;;;;65.60;39.65;;;;;;;;;;4307709;33;20203;-75
2021/10/10 09:05:18;;;;;;;59.55;35.25;;;;;;;;;;4283526;33;20172;-76
2021/10/10 09:07:44;;;;;;;68.53;36.40;;;;;;;;;;4288500;33;20141;-76
2021/10/10 09:10:17;;;;;;;60.17;35.60;;;;;;;;;;4276041;33;20211;-76
2021/10/10 09:12:42;;;;;;;68.25;37.42;;;;;;;;;;4292933;33;20148;-75
2021/10/10 09:15:08;;;;;;;58.35;35.22;;;;;;;;;;4289526;33;20215;-76
2021/10/10 09:17:33;;;;;;;55.15;32.65;;;;;;;;;;4292703;33;20136;-76
2021/10/10 09:20:13;;;;;;;;;;;;;;;;;;;;;
2021/10/10 09:22:46;;;;;;;54.72;32.88;;;;;;;;;;4303411;33;20455;-76
2021/10/10 09:25:12;;;;;;;50.30;32.17;;;;;;;;;;4303608;33;20569;-74
2021/10/10 09:27:37;;;;;;;55.33;30.08;;;;;;;;;;4289906;33;20197;-76
2021/10/10 09:36:18;;;;;;;50.40;30.83;;;;;;;;;;4287985;33;20155;-75
2021/10/10 09:41:44;;;;;;;52.08;28.65;;;;;;;;;;4301219;33;20192;-75
2021/10/10 09:44:37;;;;;;;48.63;30.20;;;;;;;;;;4302799;33;20150;-75
2021/10/10 09:47:06;;;;;;;55.78;31.20;;;;;;;;;;4302246;33;20244;-74
2021/10/10 09:50:22;;;;;;;53.60;31.48;;;;;;;;;;4302675;33;20229;-74
2021/10/10 09:53:29;;;;;;;53.97;32.05;;;;;;;;;;4228336;33;20237;-75
2021/10/10 09:56:06;;;;;;;50.28;32.28;;;;;;;;;;4228642;33;20170;-75
2021/10/10 09:58:41;;;;;;;55.58;33.00;;;;;;;;;;4229496;34;20169;-73
2021/10/10 10:01:37;;;;;;;58.35;32.15;;;;;;;;;;4229680;33;20501;-74
2021/10/10 10:04:03;;;;;;;53.28;31.87;;;;;;;;;;4234778;33;20208;-75
2021/10/10 10:06:35;;;;;;;49.60;30.92;;;;;;;;;;4286833;33;20204;-75
2021/10/10 10:09:03;;;;;;;49.08;32.00;;;;;;;;;;4288511;33;20172;-74
2021/10/10 10:11:36;;;;;;;57.67;32.30;;;;;;;;;;4302080;33;20147;-75
2021/10/10 10:14:07;;;;;;;51.65;32.10;;;;;;;;;;4289221;33;20148;-75
2021/10/10 10:16:33;;;;;;;49.88;31.92;;;;;;;;;;4302458;33;20141;-75
2021/10/10 10:18:59;;;;;;;52.95;31.10;;;;;;;;;;4302246;33;20429;-74
2021/10/10 10:21:30;;;;;;;47.92;31.40;;;;;;;;;;4302349;33;20140;-75
2021/10/10 10:24:00;;;;;;;50.03;31.73;;;;;;;;;;4288936;33;20223;-75
2021/10/10 10:26:28;;;;;;;51.03;31.75;;;;;;;;;;4289198;33;20227;-75
2021/10/10 10:28:53;;;;;;;50.50;31.45;;;;;;;;;;4286952;33;20165;-74
2021/10/10 10:31:25;;;;;;;49.92;31.67;;;;;;;;;;4288863;33;20198;-75
2021/10/10 10:34:20;;;;;;;;;;;;;;;;;;;;;
2021/10/10 10:36:53;;;;;;;55.92;34.42;;;;;;;;;;4301781;33;20179;-75
2021/10/10 10:40:00;;;;;;;49.47;32.15;;;;;;;;;;4301688;33;20136;-75
2021/10/10 10:42:39;;;;;;;53.42;33.67;;;;;;;;;;4288523;33;20230;-75
2021/10/10 10:45:41;;;;;;;55.60;36.08;;;;;;;;;;4301656;33;20120;-75
2021/10/10 10:48:27;;;;;;;51.63;33.75;;;;;;;;;;4257367;33;20165;-75
2021/10/10 10:51:22;;;;;;;;;;;;;;;;;;;;;
2021/10/10 10:53:49;;;;;;;56.90;35.72;;;;;;;;;;4301306;33;20179;-73
2021/10/10 10:56:43;;;;;;;53.97;34.88;;;;;;;;;;4301251;33;20143;-75
2021/10/10 11:02:06;;;;;;;56.58;33.88;;;;;;;;;;4300857;33;20223;-75
2021/10/10 11:04:31;;;;;;;51.22;32.63;;;;;;;;;;4302131;33;20143;-74
2021/10/10 11:06:57;;;;;;;50.38;31.92;;;;;;;;;;4283772;33;20161;-74
2021/10/10 11:09:29;;;;;;;45.85;29.67;;;;;;;;;;4283859;33;20195;-74
2021/10/10 11:11:55;;;;;;;49.22;32.55;;;;;;;;;;4301359;33;20144;-74
2021/10/10 11:14:24;;;;;;;43.63;30.05;;;;;;;;;;4301364;33;20132;-75
2021/10/10 11:20:03;;;;;;;47.92;30.02;;;;;;;;;;4300022;33;20149;-75
2021/10/10 11:22:37;;;;;;;44.22;29.90;;;;;;;;;;4288326;33;20192;-75
2021/10/10 11:25:15;;;;;;;45.55;32.25;;;;;;;;;;4302032;33;20127;-75
2021/10/10 11:27:40;;;;;;;42.88;31.10;;;;;;;;;;4288362;33;20156;-74
2021/10/10 11:30:09;;;;;;;41.13;30.45;;;;;;;;;;4288024;33;20160;-75
2021/10/10 11:33:04;;;;;;;40.45;28.85;;;;;;;;;;4301316;33;20174;-75
2021/10/10 11:35:29;;;;;;;40.63;29.37;;;;;;;;;;4301659;33;20565;-75
2021/10/10 11:38:12;;;;;;;36.78;27.27;;;;;;;;;;4301379;33;20210;-75
2021/10/10 11:40:56;;;;;;;40.33;28.90;;;;;;;;;;4301332;33;20167;-74
2021/10/10 11:43:22;;;;;;;35.47;26.85;;;;;;;;;;4288807;33;20160;-74
2021/10/10 11:45:57;;;;;;;34.90;25.05;;;;;;;;;;4288442;33;20200;-75
2021/10/10 11:48:37;;;;;;;36.53;26.67;;;;;;;;;;4301536;33;20132;-75
2021/10/10 11:51:06;;;;;;;43.78;32.05;;;;;;;;;;4301025;33;20171;-73
2021/10/10 11:53:42;;;;;;;39.13;29.67;;;;;;;;;;4301248;33;20149;-75
2021/10/10 11:56:08;;;;;;;39.20;29.27;;;;;;;;;;4287940;33;20222;-75
2021/10/10 11:58:34;;;;;;;38.53;28.40;;;;;;;;;;4293260;33;20214;-75
2021/10/10 12:01:28;;;;;;;37.28;27.87;;;;;;;;;;4294451;33;20243;-75
2021/10/10 12:03:56;;;;;;;27.80;21.33;;;;;;;;;;4302818;33;20256;-74
2021/10/10 12:06:22;;;;;;;28.27;21.55;;;;;;;;;;4315867;33;20203;-74
2021/10/10 12:08:48;;;;;;;27.98;21.58;;;;;;;;;;4302398;33;20203;-71
2021/10/10 12:11:13;;;;;;;25.23;18.42;;;;;;;;;;4306314;33;20245;-72
2021/10/10 12:13:51;;;;;;;25.88;20.40;;;;;;;;;;4312233;33;20141;-73
2021/10/10 12:16:16;;;;;;;28.25;19.80;;;;;;;;;;4303787;33;20148;-78
2021/10/10 12:19:02;;;;;;;28.70;21.45;;;;;;;;;;4303766;33;20171;-72
2021/10/10 12:21:30;;;;;;;29.48;21.40;;;;;;;;;;4303243;33;20160;-72
2021/10/10 12:24:09;;;;;;;31.23;22.87;;;;;;;;;;4296482;33;20566;-71
2021/10/10 12:26:48;;;;;;;32.40;23.02;;;;;;;;;;4289820;33;20188;-72
2021/10/10 12:32:17;;;;;;;31.52;22.37;;;;;;;;;;4280869;33;20157;-72
2021/10/10 12:34:45;;;;;;;30.67;22.75;;;;;;;;;;4291591;33;20187;-73
2021/10/10 12:37:46;;;;;;;34.42;24.25;;;;;;;;;;4304068;33;20156;-73
2021/10/10 12:40:31;;;;;;;34.45;23.17;;;;;;;;;;4293751;33;20156;-73
2021/10/10 12:43:19;;;;;;;35.20;23.45;;;;;;;;;;4280084;33;20206;-75
2021/10/10 12:46:19;;;;;;;32.10;22.83;;;;;;;;;;4281825;33;20164;-73
2021/10/10 12:48:55;;;;;;;32.10;22.50;;;;;;;;;;4293841;33;20236;-72
2021/10/10 12:51:23;;;;;;;33.88;21.52;;;;;;;;;;4293917;33;20555;-71
2021/10/10 12:53:48;;;;;;;28.77;20.52;;;;;;;;;;4292085;33;20211;-72
2021/10/10 12:56:16;;;;;;;24.30;18.05;;;;;;;;;;4303111;33;20481;-74
2021/10/10 12:59:01;;;;;;;25.33;18.12;;;;;;;;;;4302176;33;20174;-75
2021/10/10 13:01:33;;;;;;;25.45;18.92;;;;;;;;;;4292336;33;20668;-73
2021/10/10 13:04:30;;;;;;;25.35;18.48;;;;;;;;;;4299431;33;20611;-73
2021/10/10 13:07:19;;;;;;;24.48;17.48;;;;;;;;;;4275389;33;20224;-73
2021/10/10 13:09:54;;;;;;;23.73;17.27;;;;;;;;;;4299766;33;20191;-75
2021/10/10 13:12:39;;;;;;;21.30;16.40;;;;;;;;;;4289389;33;20156;-73
2021/10/10 13:15:10;;;;;;;24.35;18.30;;;;;;;;;;4302927;33;20518;-72
2021/10/10 13:17:35;;;;;;;19.17;14.27;;;;;;;;;;4303759;33;20137;-73
2021/10/10 13:20:00;;;;;;;20.23;15.15;;;;;;;;;;4302254;33;20148;-73
2021/10/10 13:22:26;;;;;;;19.17;15.15;;;;;;;;;;4286392;33;20198;-73
2021/10/10 13:24:55;;;;;;;18.95;14.45;;;;;;;;;;4299812;33;20172;-72
2021/10/10 13:27:22;;;;;;;21.55;14.05;;;;;;;;;;4289456;33;20164;-73
2021/10/10 13:29:50;;;;;;;18.90;14.43;;;;;;;;;;4280371;33;20245;-73
2021/10/10 13:32:16;;;;;;;21.08;14.95;;;;;;;;;;4298990;33;20155;-73
2021/10/10 13:34:45;;;;;;;19.48;14.43;;;;;;;;;;4288974;33;20179;-72
2021/10/10 13:37:10;;;;;;;21.62;15.52;;;;;;;;;;4287613;33;20184;-72
2021/10/10 13:39:39;;;;;;;22.13;15.50;;;;;;;;;;4302559;33;20505;-72
2021/10/10 13:42:07;;;;;;;20.77;16.27;;;;;;;;;;4302731;33;20233;-72
2021/10/10 13:44:36;;;;;;;22.35;16.75;;;;;;;;;;4289314;33;20504;-72
2021/10/10 13:47:10;;;;;;;20.48;14.60;;;;;;;;;;4302228;33;20149;-73
2021/10/10 13:49:43;;;;;;;19.62;14.73;;;;;;;;;;4303012;33;20132;-73
2021/10/10 13:52:10;;;;;;;20.00;14.13;;;;;;;;;;4289341;33;20191;-73
2021/10/10 13:55:03;;;;;;;17.40;13.62;;;;;;;;;;4302778;33;20539;-73
2021/10/10 13:57:28;;;;;;;19.05;13.52;;;;;;;;;;4289187;33;20191;-72
2021/10/10 14:00:16;;;;;;;18.27;13.13;;;;;;;;;;4302753;33;20206;-72
2021/10/10 14:05:32;;;;;;;17.45;13.85;;;;;;;;;;4283142;33;20542;-73
2021/10/10 14:08:24;;;;;;;15.10;13.00;;;;;;;;;;4274612;33;20630;-73
2021/10/10 14:10:50;;;;;;;18.87;14.10;;;;;;;;;;4265547;33;20463;-72
2021/10/10 14:13:16;;;;;;;15.82;13.27;;;;;;;;;;4287633;33;20574;-73
2021/10/10 14:15:52;;;;;;;15.43;13.55;;;;;;;;;;4271489;33;20191;-73
2021/10/10 14:18:26;;;;;;;14.80;12.35;;;;;;;;;;4273914;33;20172;-73
2021/10/10 14:21:03;;;;;;;17.90;14.15;;;;;;;;;;4285147;33;20161;-73
2021/10/10 14:23:28;;;;;;;17.52;13.23;;;;;;;;;;4282887;33;20199;-72
2021/10/10 14:26:02;;;;;;;20.20;15.88;;;;;;;;;;4273726;33;20148;-73
2021/10/10 14:28:28;;;;;;;19.02;14.93;;;;;;;;;;4280408;33;20157;-72
2021/10/10 14:30:53;;;;;;;19.58;14.80;;;;;;;;;;4274312;33;20476;-72
2021/10/10 14:33:21;;;;;;;19.83;15.43;;;;;;;;;;4287402;33;20159;-73
2021/10/10 14:35:47;;;;;;;19.00;15.20;;;;;;;;;;4287252;33;20145;-73
2021/10/10 14:38:13;;;;;;;19.90;15.85;;;;;;;;;;4280718;33;20602;-72
2021/10/10 14:40:45;;;;;;;19.15;13.98;;;;;;;;;;4271004;33;20550;-72
2021/10/10 14:43:16;;;;;;;20.77;14.95;;;;;;;;;;4286645;33;20255;-72
2021/10/10 14:45:46;;;;;;;20.23;15.63;;;;;;;;;;4274134;33;20160;-72
2021/10/10 14:48:21;;;;;;;23.42;16.27;;;;;;;;;;4287190;33;20261;-74
2021/10/10 14:50:52;;;;;;;21.42;16.10;;;;;;;;;;4284526;33;20241;-72
2021/10/10 14:53:17;;;;;;;23.23;15.93;;;;;;;;;;4287061;33;20137;-72
2021/10/10 14:56:09;;;;;;;21.58;15.70;;;;;;;;;;4286820;33;20174;-72
2021/10/10 14:58:34;;;;;;;19.05;15.50;;;;;;;;;;4271592;33;20180;-73
2021/10/10 15:01:00;;;;;;;21.15;16.25;;;;;;;;;;4273114;33;20231;-71
2021/10/10 15:03:40;;;;;;;23.98;17.15;;;;;;;;;;4271399;33;20245;-72
2021/10/10 15:06:07;;;;;;;24.48;17.35;;;;;;;;;;4294388;33;20174;-73
2021/10/10 15:08:33;;;;;;;21.40;17.20;;;;;;;;;;4279127;33;20165;-74
2021/10/10 15:10:58;;;;;;;28.23;19.20;;;;;;;;;;4273988;33;20196;-73
2021/10/10 15:13:24;;;;;;;25.77;19.05;;;;;;;;;;4278064;33;20164;-74
2021/10/10 15:15:49;;;;;;;21.77;16.92;;;;;;;;;;4280099;33;20168;-73
2021/10/10 15:18:36;;;;;;;23.60;17.15;;;;;;;;;;4292504;33;20253;-74
2021/10/10 15:21:01;;;;;;;22.67;16.83;;;;;;;;;;4284723;33;20165;-73
2021/10/10 15:23:34;;;;;;;24.30;17.87;;;;;;;;;;4285466;33;20161;-74
2021/10/10 15:25:59;;;;;;;23.90;17.10;;;;;;;;;;4288045;33;20163;-73
2021/10/10 15:28:24;;;;;;;26.15;18.50;;;;;;;;;;4301773;33;20501;-74
2021/10/10 15:30:50;;;;;;;22.43;17.33;;;;;;;;;;4288295;33;21880;-73
2021/10/10 15:33:21;;;;;;;26.07;19.47;;;;;;;;;;4285297;33;20254;-75
2021/10/10 15:35:46;;;;;;;24.75;17.65;;;;;;;;;;4287239;33;20338;-74
2021/10/10 15:38:21;;;;;;;23.83;18.48;;;;;;;;;;4300417;33;20477;-74
2021/10/10 15:40:50;;;;;;;22.70;17.58;;;;;;;;;;4288550;33;20164;-73
2021/10/10 15:43:16;;;;;;;26.30;19.02;;;;;;;;;;4301404;33;20207;-74
2021/10/10 15:45:41;;;;;;;26.33;18.12;;;;;;;;;;4290452;33;20535;-75
2021/10/10 15:48:16;;;;;;;22.45;17.25;;;;;;;;;;4304367;33;20164;-76
2021/10/10 15:50:42;;;;;;;20.30;15.30;;;;;;;;;;4304392;33;20136;-75
2021/10/10 15:53:10;;;;;;;22.13;16.55;;;;;;;;;;4304427;33;20203;-74
2021/10/10 15:55:35;;;;;;;24.15;17.33;;;;;;;;;;4304214;33;20148;-74
2021/10/10 15:58:06;;;;;;;22.35;16.73;;;;;;;;;;4291255;33;20203;-75
2021/10/10 16:00:38;;;;;;;21.08;15.23;;;;;;;;;;4303755;33;20158;-74
2021/10/10 16:03:04;;;;;;;21.73;16.17;;;;;;;;;;4304652;33;20133;-74
2021/10/10 16:05:32;;;;;;;20.75;15.07;;;;;;;;;;4291425;33;20617;-73
2021/10/10 16:07:58;;;;;;;21.75;16.00;;;;;;;;;;4303731;33;20145;-74
2021/10/10 16:10:33;;;;;;;24.05;15.63;;;;;;;;;;4303854;33;20149;-73
2021/10/10 16:13:09;;;;;;;21.83;16.92;;;;;;;;;;4290729;33;20210;-73
2021/10/10 16:15:35;;;;;;;18.70;14.93;;;;;;;;;;4290877;33;20176;-74
2021/10/10 16:18:00;;;;;;;20.42;15.38;;;;;;;;;;4290880;33;20215;-75
2021/10/10 16:20:26;;;;;;;22.60;16.12;;;;;;;;;;4303726;33;20140;-73
2021/10/10 16:22:53;;;;;;;22.95;16.35;;;;;;;;;;4290475;33;20164;-75